Pagina principale
METAR-TAF:

METAR-TAF

Aeroporti :

Frontone, Italia

latitudine: 43-31N, longitudine: 012-44E, altezza: 570 m

Osservazione

Il bollettino è stato emesso 58 minuti fa, alle 08:55 UTC
Vento calmo
Temperature 5°C
Umidità 93%
Pressione 1012 hPa
Visibilità: 0100 m
pioggia debole, nebbia

METAR: LIVF 090855Z 00000KT 0100 -RA FG VV/// 05/04 Q1012 RMK MON INVIS VAL INVIS VIS MIN 0100

Ora: 10:53 (09:53 UTC)


TAF: mancante

Osservazioni e previsioni meteorologiche di più di 4000 aeroporti (messaggi METAR e TAF).

Le stazioni disponibili sono rappresentate dai dischi gialli e rossi sulla carta.

Puntare il mouse per vedere il nome della stazione.

Clicca sopra per visualizzare le osservazioni e previsioni meteorologiche.

Per cambiare la mappa : fare clic sui pulsanti verdi con una croce nera per ingrandire, il pulsante verde con un trattino per diminuire, o sulla freccia verde per le mappe adiacenti.


METAR-TAF: